createdAt,value
2018-03-23T00:00:36.063Z,23.63
2018-03-23T00:03:10.020Z,21.27
2018-03-23T00:05:43.683Z,21.50
2018-03-23T00:08:17.416Z,19.27
2018-03-23T00:10:51.270Z,24.30
2018-03-23T00:13:24.959Z,23.97
2018-03-23T00:15:58.625Z,20.63
2018-03-23T00:18:32.520Z,24.13
2018-03-23T00:21:06.435Z,21.90
2018-03-23T00:23:41.129Z,19.77
2018-03-23T00:26:15.134Z,23.20
2018-03-23T00:28:49.070Z,23.77
2018-03-23T00:31:23.788Z,20.87
2018-03-23T00:33:57.704Z,18.37
2018-03-23T00:36:32.109Z,22.60
2018-03-23T00:39:06.164Z,20.30
2018-03-23T00:41:39.947Z,20.73
2018-03-23T00:44:13.628Z,21.70
2018-03-23T00:46:47.476Z,21.23
2018-03-23T00:49:21.012Z,23.00
2018-03-23T00:51:55.341Z,19.40
2018-03-23T00:54:29.237Z,22.77
2018-03-23T00:57:03.768Z,21.90
2018-03-23T00:59:38.543Z,27.10
2018-03-23T01:02:12.727Z,20.67
2018-03-23T01:04:46.522Z,20.80
2018-03-23T01:07:20.111Z,20.70
2018-03-23T01:09:53.920Z,23.37
2018-03-23T01:12:27.705Z,20.53
2018-03-23T01:15:01.383Z,24.50
2018-03-23T01:17:35.335Z,21.90
2018-03-23T01:20:09.138Z,21.03
2018-03-23T01:22:42.789Z,23.60
2018-03-23T01:25:16.540Z,19.20
2018-03-23T01:27:50.291Z,17.17
2018-03-23T01:30:24.022Z,21.60
2018-03-23T01:32:58.710Z,22.43
2018-03-23T01:35:33.436Z,18.70
2018-03-23T01:38:07.559Z,18.33
2018-03-23T01:40:41.445Z,20.97
2018-03-23T01:43:15.336Z,18.67
2018-03-23T01:45:49.029Z,18.07
2018-03-23T01:48:22.919Z,16.80
2018-03-23T01:50:56.815Z,16.73
2018-03-23T01:53:42.747Z,18.63
2018-03-23T01:56:16.551Z,14.33
2018-03-23T01:58:51.147Z,18.37
2018-03-23T02:01:25.260Z,21.20
2018-03-23T02:03:59.040Z,16.00
2018-03-23T02:06:32.947Z,17.70
2018-03-23T02:09:06.787Z,19.67
2018-03-23T02:11:41.467Z,16.70
2018-03-23T02:14:15.533Z,17.80
2018-03-23T02:16:49.420Z,21.67
2018-03-23T02:19:23.210Z,20.17
2018-03-23T02:21:56.996Z,22.87
2018-03-23T02:24:30.898Z,17.83
2018-03-23T02:27:04.546Z,18.53
2018-03-23T02:29:39.016Z,18.80
2018-03-23T02:32:13.048Z,11.33
2018-03-23T02:34:46.844Z,11.07
2018-03-23T02:37:21.447Z,6.17
2018-03-23T02:39:55.583Z,7.87
2018-03-23T02:42:29.561Z,12.83
2018-03-23T02:45:04.316Z,7.97
2018-03-23T02:47:38.232Z,10.03
2018-03-23T02:50:12.156Z,7.20
2018-03-23T02:52:45.940Z,9.73
2018-03-23T02:55:20.530Z,7.63
2018-03-23T02:57:54.476Z,7.23
2018-03-23T03:00:28.271Z,7.87
2018-03-23T03:03:02.668Z,9.90
2018-03-23T03:05:37.027Z,8.50
2018-03-23T03:08:10.872Z,7.90
2018-03-23T03:10:45.340Z,9.10
2018-03-23T03:13:20.557Z,9.53
2018-03-23T03:15:54.631Z,8.97
2018-03-23T03:18:29.099Z,9.57
2018-03-23T03:21:03.057Z,10.83
2018-03-23T03:23:37.440Z,9.23
2018-03-23T03:26:11.451Z,7.10
2018-03-23T03:28:46.095Z,10.60
2018-03-23T03:31:20.189Z,9.10
2018-03-23T03:33:53.941Z,13.27
2018-03-23T03:36:27.804Z,7.93
2018-03-23T03:39:02.325Z,8.60
2018-03-23T03:41:37.140Z,8.70
2018-03-23T03:44:11.045Z,7.13
2018-03-23T03:46:45.000Z,8.93
2018-03-23T03:49:19.578Z,9.33
2018-03-23T03:51:53.728Z,7.27
2018-03-23T03:54:27.729Z,9.80
2018-03-23T03:57:01.767Z,9.37
2018-03-23T03:59:36.328Z,10.53
2018-03-23T04:02:10.476Z,8.60
2018-03-23T04:04:45.079Z,7.07
2018-03-23T04:07:19.324Z,9.40
2018-03-23T04:09:53.375Z,6.90
2018-03-23T04:12:27.822Z,12.10
2018-03-23T04:15:01.595Z,11.03
2018-03-23T04:17:35.786Z,11.60
2018-03-23T04:20:09.561Z,11.23
2018-03-23T04:22:43.484Z,9.40
2018-03-23T04:25:17.238Z,9.80
2018-03-23T04:27:51.718Z,10.40
2018-03-23T04:30:25.649Z,12.07
2018-03-23T04:32:59.279Z,7.93
2018-03-23T04:35:33.163Z,10.70
2018-03-23T04:38:06.995Z,18.87
2018-03-23T04:40:40.664Z,10.67
2018-03-23T04:43:15.154Z,12.27
2018-03-23T04:45:49.110Z,10.23
2018-03-23T04:48:23.568Z,10.93
2018-03-23T04:50:58.289Z,11.60
2018-03-23T04:53:32.941Z,10.40
2018-03-23T04:56:06.719Z,11.33
2018-03-23T04:58:40.539Z,10.80
2018-03-23T05:01:14.347Z,10.80
2018-03-23T05:03:48.164Z,12.97
2018-03-23T05:06:21.960Z,14.13
2018-03-23T05:08:56.031Z,11.20
2018-03-23T05:11:30.467Z,15.20
2018-03-23T05:14:05.544Z,10.53
2018-03-23T05:16:39.318Z,18.03
2018-03-23T05:19:13.143Z,11.07
2018-03-23T05:21:46.963Z,16.40
2018-03-23T05:24:20.736Z,12.63
2018-03-23T05:26:54.516Z,14.40
2018-03-23T05:29:28.363Z,16.27
2018-03-23T05:32:02.092Z,15.00
2018-03-23T05:34:35.844Z,14.67
2018-03-23T05:37:10.394Z,16.43
2018-03-23T05:39:44.446Z,14.03
2018-03-23T05:42:18.999Z,12.67
2018-03-23T05:44:53.863Z,16.17
2018-03-23T05:47:27.766Z,15.33
2018-03-23T05:50:01.611Z,15.73
2018-03-23T05:52:35.302Z,14.40
2018-03-23T05:55:09.212Z,17.60
2018-03-23T05:57:42.900Z,16.77
2018-03-23T06:00:17.621Z,16.33
2018-03-23T06:02:52.257Z,19.60
2018-03-23T06:05:26.252Z,24.63
2018-03-23T06:08:00.104Z,13.30
2018-03-23T06:10:33.787Z,14.90
2018-03-23T06:13:08.386Z,16.97
2018-03-23T06:15:42.411Z,15.63
2018-03-23T06:18:16.507Z,12.90
2018-03-23T06:20:51.321Z,15.03
2018-03-23T06:23:25.954Z,15.67
2018-03-23T06:26:00.217Z,12.83
2018-03-23T06:28:34.028Z,15.53
2018-03-23T06:31:07.941Z,16.00
2018-03-23T06:33:42.334Z,15.60
2018-03-23T06:36:16.237Z,22.60
2018-03-23T06:38:49.931Z,14.70
2018-03-23T06:41:23.898Z,15.00
2018-03-23T06:43:57.789Z,17.87
2018-03-23T06:46:31.492Z,14.23
2018-03-23T06:49:05.455Z,16.33
2018-03-23T06:51:39.873Z,15.87
2018-03-23T06:54:13.994Z,16.63
2018-03-23T06:56:47.915Z,14.50
2018-03-23T06:59:21.631Z,15.93
2018-03-23T07:01:55.423Z,17.43
2018-03-23T07:04:29.182Z,18.43
2018-03-23T07:07:02.882Z,17.53
2018-03-23T07:09:36.485Z,16.87
2018-03-23T07:12:10.039Z,19.40
2018-03-23T07:14:43.599Z,13.13
2018-03-23T07:17:17.329Z,15.10
2018-03-23T07:19:51.196Z,12.70
2018-03-23T07:22:25.059Z,16.83
2018-03-23T07:24:58.908Z,16.27
2018-03-23T07:27:33.536Z,11.70
2018-03-23T07:30:07.777Z,12.93
2018-03-23T07:32:41.572Z,14.93
2018-03-23T07:35:16.087Z,14.60
2018-03-23T07:37:50.317Z,16.47
2018-03-23T07:40:24.167Z,12.47
2018-03-23T07:42:57.776Z,13.70
2018-03-23T07:45:31.562Z,12.63
2018-03-23T07:48:05.457Z,15.13
2018-03-23T07:50:39.969Z,13.70
2018-03-23T07:53:14.050Z,11.90
2018-03-23T07:55:48.590Z,12.10
2018-03-23T07:58:22.716Z,14.93
2018-03-23T08:00:57.208Z,16.47
2018-03-23T08:03:31.171Z,15.37
2018-03-23T08:06:05.859Z,26.97
2018-03-23T08:08:40.162Z,19.63
2018-03-23T08:11:13.824Z,15.90
2018-03-23T08:13:47.634Z,16.13
2018-03-23T08:16:21.174Z,16.47
2018-03-23T08:18:55.723Z,16.13
2018-03-23T08:21:29.980Z,15.13
2018-03-23T08:24:03.935Z,18.37
2018-03-23T08:26:37.768Z,23.40
2018-03-23T08:29:12.154Z,15.70
2018-03-23T08:31:46.897Z,13.47
2018-03-23T08:34:20.825Z,15.00
2018-03-23T08:36:55.439Z,23.33
2018-03-23T08:39:29.328Z,18.97
2018-03-23T08:42:03.884Z,25.57
2018-03-23T08:44:38.022Z,16.90
2018-03-23T08:47:11.767Z,17.13
2018-03-23T08:49:46.178Z,16.93
2018-03-23T08:52:20.408Z,14.10
2018-03-23T08:54:54.840Z,15.30
2018-03-23T08:57:28.887Z,17.60
2018-03-23T09:00:02.519Z,14.10
2018-03-23T09:02:36.439Z,17.40
2018-03-23T09:05:10.148Z,12.80
2018-03-23T09:07:43.987Z,13.10
2018-03-23T09:10:18.356Z,15.83
2018-03-23T09:12:52.776Z,19.20
2018-03-23T09:15:26.888Z,26.53
2018-03-23T09:18:00.548Z,11.27
2018-03-23T09:20:34.246Z,13.30
2018-03-23T09:23:08.743Z,10.83
2018-03-23T09:25:42.854Z,12.77
2018-03-23T09:28:17.166Z,14.80
2018-03-23T09:30:52.001Z,14.30
2018-03-23T09:33:26.804Z,12.13
2018-03-23T09:36:00.873Z,11.73
2018-03-23T09:38:35.547Z,14.90
2018-03-23T09:41:09.662Z,11.83
2018-03-23T09:43:44.180Z,13.47
2018-03-23T09:46:18.579Z,10.27
2018-03-23T09:48:53.526Z,20.03
2018-03-23T09:51:28.390Z,14.90
2018-03-23T09:54:03.015Z,9.60
2018-03-23T09:56:37.240Z,11.70
2018-03-23T09:59:11.015Z,10.93
2018-03-23T10:01:45.168Z,10.53
2018-03-23T10:04:18.929Z,8.17
2018-03-23T10:06:52.883Z,8.23
2018-03-23T10:09:26.812Z,11.50
2018-03-23T10:12:01.474Z,6.87
2018-03-23T10:14:35.693Z,10.43
2018-03-23T10:17:09.619Z,8.27
2018-03-23T10:19:43.322Z,10.70
2018-03-23T10:22:17.959Z,10.50
2018-03-23T10:24:52.078Z,9.00
2018-03-23T10:27:26.677Z,8.97
2018-03-23T10:30:00.665Z,9.73
2018-03-23T10:32:34.395Z,11.60
2018-03-23T10:35:08.149Z,8.23
2018-03-23T10:37:42.732Z,11.50
2018-03-23T10:40:16.639Z,12.10
2018-03-23T10:42:50.377Z,11.70
2018-03-23T10:45:24.047Z,9.00
2018-03-23T10:47:57.812Z,8.63
2018-03-23T10:50:31.676Z,9.03
2018-03-23T10:53:05.443Z,9.13
2018-03-23T10:55:39.982Z,12.80
2018-03-23T10:58:14.576Z,9.57
2018-03-23T11:00:54.301Z,9.37
2018-03-23T11:03:28.266Z,12.70
2018-03-23T11:06:02.144Z,7.23
2018-03-23T11:08:37.019Z,7.60
2018-03-23T11:11:11.291Z,7.37
2018-03-23T11:13:45.031Z,8.53
2018-03-23T11:16:18.793Z,14.80
2018-03-23T11:18:52.619Z,12.90
2018-03-23T11:21:26.345Z,6.90
2018-03-23T11:24:00.492Z,6.47
2018-03-23T11:26:35.260Z,11.40
2018-03-23T11:29:09.416Z,7.17
2018-03-23T11:31:43.441Z,8.70
2018-03-23T11:34:17.326Z,7.20
2018-03-23T11:36:50.985Z,9.60
2018-03-23T11:39:24.662Z,10.30
2018-03-23T11:41:58.435Z,7.47
2018-03-23T11:44:32.083Z,11.67
2018-03-23T11:47:05.902Z,13.10
2018-03-23T11:49:39.600Z,21.50
2018-03-23T11:52:13.411Z,15.67
2018-03-23T11:54:47.025Z,7.80
2018-03-23T11:57:20.679Z,19.23
2018-03-23T11:59:54.518Z,9.60
2018-03-23T12:02:28.256Z,8.60
2018-03-23T12:05:01.956Z,16.73
2018-03-23T12:07:36.255Z,10.97
2018-03-23T12:10:10.427Z,9.17
2018-03-23T12:12:44.363Z,11.87
2018-03-23T12:15:18.107Z,11.87
2018-03-23T12:17:52.015Z,10.40
2018-03-23T12:20:26.650Z,11.27
2018-03-23T12:23:00.623Z,10.40
2018-03-23T12:25:35.244Z,7.93
2018-03-23T12:28:09.183Z,7.53
2018-03-23T12:30:43.166Z,6.47
2018-03-23T12:33:17.898Z,8.97
2018-03-23T12:35:52.255Z,9.13
2018-03-23T12:38:26.360Z,7.50
2018-03-23T12:41:01.387Z,11.80
2018-03-23T12:43:36.434Z,14.73
2018-03-23T12:46:10.496Z,7.37
2018-03-23T12:48:44.949Z,9.90
2018-03-23T12:51:19.644Z,11.63
2018-03-23T12:53:53.531Z,9.47
2018-03-23T12:56:27.268Z,14.17
2018-03-23T12:59:01.092Z,9.63
2018-03-23T13:01:34.780Z,11.30
2018-03-23T13:04:08.609Z,8.50
2018-03-23T13:06:42.375Z,14.47
2018-03-23T13:09:17.111Z,10.40
2018-03-23T13:11:50.675Z,9.37
2018-03-23T13:14:24.362Z,12.50
2018-03-23T13:16:58.143Z,12.40
2018-03-23T13:19:31.754Z,13.33
2018-03-23T13:22:05.495Z,13.50
2018-03-23T13:24:40.047Z,16.63
2018-03-23T13:27:13.960Z,11.80
2018-03-23T13:29:47.694Z,11.30
2018-03-23T13:32:21.512Z,12.67
2018-03-23T13:34:56.243Z,12.10
2018-03-23T13:37:30.262Z,15.90
2018-03-23T13:40:04.148Z,17.57
2018-03-23T13:42:38.009Z,15.03
2018-03-23T13:45:11.763Z,12.83
2018-03-23T13:47:45.740Z,21.27
2018-03-23T13:50:20.278Z,20.30
2018-03-23T13:52:55.605Z,19.43
2018-03-23T13:55:29.370Z,19.80
2018-03-23T13:58:04.145Z,17.70
2018-03-23T14:00:43.831Z,17.30
2018-03-23T14:03:18.100Z,14.00
2018-03-23T14:05:52.051Z,13.20
2018-03-23T14:08:26.620Z,15.20
2018-03-23T14:11:00.631Z,15.17
2018-03-23T14:13:34.412Z,13.73
2018-03-23T14:16:09.083Z,16.17
2018-03-23T14:18:42.957Z,19.80
2018-03-23T14:21:17.434Z,23.37
2018-03-23T14:23:51.539Z,19.13
2018-03-23T14:26:25.938Z,14.50
2018-03-23T14:28:59.956Z,13.33
2018-03-23T14:31:34.592Z,18.10
2018-03-23T14:34:08.524Z,20.10
2018-03-23T14:36:42.367Z,16.00
2018-03-23T14:39:16.258Z,17.93
2018-03-23T14:41:50.020Z,20.00
2018-03-23T14:44:24.727Z,24.27
2018-03-23T14:46:59.565Z,24.53
2018-03-23T14:49:33.684Z,21.20
2018-03-23T14:52:08.498Z,20.43
2018-03-23T14:54:43.148Z,17.30
2018-03-23T14:57:17.280Z,18.77
2018-03-23T14:59:51.165Z,20.63
2018-03-23T15:02:25.342Z,28.10
2018-03-23T15:04:59.199Z,20.93
2018-03-23T15:07:33.236Z,22.63
2018-03-23T15:10:06.968Z,22.60
2018-03-23T15:12:40.803Z,23.13
2018-03-23T15:15:15.396Z,22.37
2018-03-23T15:17:49.511Z,20.10
2018-03-23T15:20:23.253Z,21.70
2018-03-23T15:22:57.853Z,18.10
2018-03-23T15:25:31.624Z,21.57
2018-03-23T15:28:05.444Z,35.33
2018-03-23T15:30:39.110Z,34.93
2018-03-23T15:33:12.887Z,23.50
2018-03-23T15:35:46.702Z,20.57
2018-03-23T15:38:20.471Z,23.07
2018-03-23T15:40:54.267Z,21.37
2018-03-23T15:43:28.063Z,30.17
2018-03-23T15:46:02.797Z,26.27
2018-03-23T15:48:36.867Z,24.13
2018-03-23T15:51:10.636Z,22.43
2018-03-23T15:53:45.384Z,21.90
2018-03-23T15:56:19.684Z,23.03
2018-03-23T15:58:53.859Z,25.40
2018-03-23T16:01:27.717Z,25.90
2018-03-23T16:04:02.205Z,26.53
2018-03-23T16:06:36.677Z,29.87
2018-03-23T16:09:10.793Z,22.73
2018-03-23T16:11:45.195Z,25.80
2018-03-23T16:14:19.291Z,27.90
2018-03-23T16:16:53.281Z,37.23
2018-03-23T16:19:28.026Z,26.93
2018-03-23T16:22:02.766Z,30.40
2018-03-23T16:24:36.846Z,23.90
2018-03-23T16:27:11.381Z,25.10
2018-03-23T16:29:45.493Z,29.93
2018-03-23T16:32:19.292Z,28.67
2018-03-23T16:34:53.095Z,25.13
2018-03-23T16:37:26.915Z,24.20
2018-03-23T16:40:00.708Z,29.40
2018-03-23T16:42:34.512Z,30.03
2018-03-23T16:45:08.159Z,29.50
2018-03-23T16:47:41.980Z,23.30
2018-03-23T16:50:16.484Z,29.53
2018-03-23T16:52:50.457Z,24.60
2018-03-23T16:55:24.184Z,23.40
2018-03-23T16:57:58.104Z,22.03
2018-03-23T17:00:32.151Z,24.70
2018-03-23T17:03:06.080Z,28.30
2018-03-23T17:05:40.408Z,25.60
2018-03-23T17:08:15.119Z,22.23
2018-03-23T17:10:49.151Z,27.30
2018-03-23T17:13:23.020Z,30.13
2018-03-23T17:15:57.263Z,21.80
2018-03-23T17:18:32.206Z,21.00
2018-03-23T17:21:06.944Z,25.67
2018-03-23T17:23:42.038Z,27.07
2018-03-23T17:26:16.180Z,23.47
2018-03-23T17:28:51.015Z,27.00
2018-03-23T17:31:25.169Z,24.40
2018-03-23T17:33:59.146Z,27.20
2018-03-23T17:36:33.767Z,27.17
2018-03-23T17:39:07.937Z,31.93
2018-03-23T17:41:42.516Z,29.00
2018-03-23T17:44:17.360Z,26.23
2018-03-23T17:46:52.070Z,25.80
2018-03-23T17:49:26.347Z,26.80
2018-03-23T17:52:00.110Z,26.03
2018-03-23T17:54:34.038Z,33.20
2018-03-23T17:57:07.940Z,31.47
2018-03-23T17:59:41.705Z,25.70
2018-03-23T18:02:15.498Z,26.10
2018-03-23T18:04:50.093Z,27.30
2018-03-23T18:07:24.084Z,30.40
2018-03-23T18:09:58.671Z,30.00
2018-03-23T18:12:33.709Z,28.20
2018-03-23T18:15:07.862Z,23.73
2018-03-23T18:17:41.820Z,24.57
2018-03-23T18:20:15.829Z,25.40
2018-03-23T18:22:50.174Z,26.17
2018-03-23T18:25:24.256Z,25.33
2018-03-23T18:27:58.076Z,26.80
2018-03-23T18:30:32.057Z,25.40
2018-03-23T18:33:06.031Z,25.60
2018-03-23T18:35:39.924Z,29.50
2018-03-23T18:38:14.763Z,26.17
2018-03-23T18:40:48.871Z,30.80
2018-03-23T18:43:23.523Z,29.93
2018-03-23T18:45:57.592Z,26.73
2018-03-23T18:48:31.636Z,25.87
2018-03-23T18:51:05.491Z,24.07
2018-03-23T18:53:39.296Z,29.30
2018-03-23T18:56:13.248Z,25.90
2018-03-23T18:58:47.726Z,28.40
2018-03-23T19:01:21.785Z,31.67
2018-03-23T19:03:55.591Z,32.07
2018-03-23T19:06:30.171Z,26.27
2018-03-23T19:09:04.407Z,30.77
2018-03-23T19:11:38.330Z,29.90
2018-03-23T19:14:12.745Z,29.83
2018-03-23T19:16:47.355Z,28.10
2018-03-23T19:19:21.595Z,28.13
2018-03-23T19:21:56.507Z,27.40
2018-03-23T19:24:30.830Z,25.30
2018-03-23T19:27:05.362Z,33.10
2018-03-23T19:29:39.328Z,24.00
2018-03-23T19:32:13.077Z,27.60
2018-03-23T19:34:46.833Z,29.80
2018-03-23T19:37:20.595Z,30.27
2018-03-23T19:39:54.544Z,27.30
2018-03-23T19:42:28.529Z,27.53
2018-03-23T19:45:03.054Z,29.53
2018-03-23T19:47:37.257Z,28.70
2018-03-23T19:50:10.952Z,30.93
2018-03-23T19:52:44.809Z,29.53
2018-03-23T19:55:19.360Z,36.90
2018-03-23T19:57:53.409Z,31.47
2018-03-23T20:00:27.412Z,27.77
2018-03-23T20:03:02.007Z,34.17
2018-03-23T20:05:36.112Z,28.80
2018-03-23T20:08:09.894Z,29.47
2018-03-23T20:10:43.556Z,27.60
2018-03-23T20:13:17.340Z,28.97
2018-03-23T20:15:51.070Z,30.77
2018-03-23T20:18:24.767Z,30.17
2018-03-23T20:21:02.462Z,31.97
2018-03-23T20:23:36.468Z,31.60
2018-03-23T20:26:10.263Z,34.13
2018-03-23T20:28:43.959Z,30.83
2018-03-23T20:31:23.631Z,33.20
2018-03-23T20:33:57.900Z,33.93
2018-03-23T20:36:31.827Z,32.60
2018-03-23T20:39:06.335Z,33.70
2018-03-23T20:41:40.392Z,42.33
2018-03-23T20:44:14.501Z,36.07
2018-03-23T20:46:49.076Z,32.53
2018-03-23T20:49:23.151Z,37.33
2018-03-23T20:51:56.959Z,30.70
2018-03-23T20:54:31.648Z,37.57
2018-03-23T20:57:05.733Z,36.53
2018-03-23T20:59:40.267Z,30.50
2018-03-23T21:02:14.299Z,42.30
2018-03-23T21:04:47.960Z,39.97
2018-03-23T21:07:21.762Z,29.93
2018-03-23T21:09:55.575Z,33.50
2018-03-23T21:12:29.424Z,36.00
2018-03-23T21:15:03.282Z,38.93
2018-03-23T21:17:37.253Z,33.77
2018-03-23T21:20:11.963Z,35.60
2018-03-23T21:22:46.308Z,36.50
2018-03-23T21:25:19.943Z,35.37
2018-03-23T21:27:53.906Z,36.90
2018-03-23T21:30:27.675Z,35.83
2018-03-23T21:33:02.179Z,34.60
2018-03-23T21:35:36.946Z,33.57
2018-03-23T21:38:10.857Z,34.20
2018-03-23T21:40:44.588Z,34.87
2018-03-23T21:43:18.208Z,33.80
2018-03-23T21:45:51.929Z,33.43
2018-03-23T21:48:25.895Z,39.27
2018-03-23T21:50:59.669Z,41.97
2018-03-23T21:53:33.444Z,33.80
2018-03-23T21:56:07.872Z,34.03
2018-03-23T21:58:42.672Z,37.17
2018-03-23T22:01:17.060Z,33.40
2018-03-23T22:03:51.328Z,33.90
2018-03-23T22:06:26.568Z,32.43
2018-03-23T22:09:00.232Z,30.83
2018-03-23T22:11:34.800Z,33.53
2018-03-23T22:14:08.836Z,35.97
2018-03-23T22:16:43.288Z,32.90
2018-03-23T22:19:17.266Z,28.80
2018-03-23T22:21:51.131Z,32.17
2018-03-23T22:24:25.195Z,31.90
2018-03-23T22:26:59.647Z,30.73
2018-03-23T22:29:33.417Z,28.43
2018-03-23T22:32:07.281Z,31.57
2018-03-23T22:34:40.958Z,32.63
2018-03-23T22:37:14.732Z,33.27
2018-03-23T22:39:49.463Z,40.03
2018-03-23T22:42:23.664Z,31.33
2018-03-23T22:44:58.068Z,31.70
2018-03-23T22:47:31.934Z,33.97
2018-03-23T22:50:05.764Z,34.17
2018-03-23T22:52:39.731Z,37.47
2018-03-23T22:55:13.557Z,35.20
2018-03-23T22:57:47.568Z,28.40
2018-03-23T23:00:21.247Z,35.40
2018-03-23T23:02:54.791Z,32.30
2018-03-23T23:05:28.483Z,33.53
2018-03-23T23:08:03.056Z,34.30
2018-03-23T23:10:36.999Z,39.63
2018-03-23T23:13:10.992Z,30.80
2018-03-23T23:15:44.667Z,37.47
2018-03-23T23:18:18.433Z,34.13
2018-03-23T23:20:52.262Z,32.53
2018-03-23T23:23:26.027Z,31.13
2018-03-23T23:25:59.917Z,39.30
2018-03-23T23:28:34.583Z,30.93
2018-03-23T23:31:08.604Z,33.20
2018-03-23T23:33:42.587Z,34.80
2018-03-23T23:36:16.373Z,50.53
2018-03-23T23:38:50.288Z,30.60
2018-03-23T23:41:24.132Z,38.60
2018-03-23T23:43:58.685Z,28.33
2018-03-23T23:46:32.676Z,36.60
2018-03-23T23:49:06.384Z,34.20
2018-03-23T23:51:40.231Z,36.73
2018-03-23T23:54:13.928Z,33.70
2018-03-23T23:56:47.683Z,36.63
2018-03-23T23:59:22.122Z,37.97
